Time;durP1;ratioP1;P1;durP2;ratioP2;P2;SDS_P1;SDS_P2;PMS_P1;PMS_P2;Temp;Humidity;BMP_temperature;BMP_pressure;BME280_temperature;BME280_humidity;BME280_pressure;Samples;Min_cycle;Max_cycle;Signal;HPM_P1;HPM_P2
2020/12/14 00:02:17;;;;;;;106.17;29.57;;;;;;;3.80;92.99;100659.28;5097942;28;20485;-60
2020/12/14 00:04:44;;;;;;;76.73;27.87;;;;;;;3.86;92.71;100657.16;5096003;28;20606;-60
2020/12/14 00:07:11;;;;;;;100.37;29.50;;;;;;;3.86;93.16;100653.69;5097814;28;20457;-60
2020/12/14 00:09:38;;;;;;;101.37;29.40;;;;;;;3.77;92.96;100661.63;5096617;28;20811;-61
2020/12/14 00:12:04;;;;;;;91.93;28.10;;;;;;;3.77;92.62;100661.63;5098078;28;20460;-60
2020/12/14 00:14:31;;;;;;;75.60;28.20;;;;;;;3.59;93.04;100672.34;5095960;28;20545;-60
2020/12/14 00:16:58;;;;;;;96.30;28.83;;;;;;;3.64;93.36;100675.22;5097937;28;20454;-60
2020/12/14 00:19:25;;;;;;;91.67;28.67;;;;;;;3.82;92.90;100667.94;5095936;28;20538;-60
2020/12/14 00:21:52;;;;;;;84.67;27.37;;;;;;;3.79;92.39;100677.91;5097777;28;20456;-60
2020/12/14 00:24:19;;;;;;;103.53;31.07;;;;;;;3.74;92.70;100681.84;5098175;27;20831;-60
2020/12/14 00:26:46;;;;;;;80.57;28.37;;;;;;;3.77;92.79;100687.13;5097056;28;20999;-60
2020/12/14 00:29:13;;;;;;;130.37;42.43;;;;;;;3.87;93.04;100689.56;5096212;28;20533;-60
2020/12/14 00:31:39;;;;;;;77.10;29.50;;;;;;;3.68;93.13;100691.63;5097483;28;20453;-60
2020/12/14 00:34:06;;;;;;;98.97;32.13;;;;;;;3.64;93.69;100696.50;5096968;28;20468;-60
2020/12/14 00:36:34;;;;;;;103.20;29.50;;;;;;;3.59;93.44;100692.75;5096064;28;20769;-60
2020/12/14 00:39:00;;;;;;;93.57;29.03;;;;;;;3.58;93.58;100688.44;5097325;28;20909;-60
2020/12/14 00:41:27;;;;;;;124.07;38.00;;;;;;;3.73;93.73;100688.59;5095704;28;20511;-60
2020/12/14 00:43:54;;;;;;;92.17;29.90;;;;;;;3.74;93.00;100686.94;5097097;28;20453;-60
2020/12/14 00:46:21;;;;;;;87.60;28.03;;;;;;;3.71;92.63;100679.06;5095611;28;20452;-60
2020/12/14 00:48:48;;;;;;;92.93;29.67;;;;;;;3.63;93.09;100669.22;5114696;28;20464;-60
2020/12/14 00:51:14;;;;;;;78.03;25.53;;;;;;;3.68;92.95;100676.31;5115899;27;20561;-60
2020/12/14 00:53:41;;;;;;;82.80;28.17;;;;;;;3.62;93.31;100679.31;5102053;28;20428;-60
2020/12/14 00:56:08;;;;;;;87.50;29.00;;;;;;;3.70;93.38;100684.97;5095104;28;20765;-60
2020/12/14 00:58:35;;;;;;;81.50;28.07;;;;;;;3.72;93.34;100689.38;5097064;28;20454;-60
2020/12/14 01:01:02;;;;;;;81.73;28.03;;;;;;;3.81;93.06;100686.56;5095204;28;20509;-60
2020/12/14 01:03:29;;;;;;;77.60;26.73;;;;;;;3.78;92.67;100691.47;5097022;28;20781;-60
2020/12/14 01:05:56;;;;;;;65.37;25.20;;;;;;;3.69;92.49;100688.28;5094876;28;20532;-60
2020/12/14 01:08:22;;;;;;;77.87;27.00;;;;;;;3.65;93.06;100680.41;5097067;28;20454;-60
2020/12/14 01:10:50;;;;;;;75.47;26.00;;;;;;;3.85;93.07;100680.88;5095451;28;20478;-60
2020/12/14 01:13:17;;;;;;;80.00;31.63;;;;;;;4.01;93.22;100671.72;5096735;28;20449;-61
2020/12/14 01:15:44;;;;;;;72.83;25.97;;;;;;;3.87;92.19;100658.03;5094428;28;20556;-60
2020/12/14 01:18:10;;;;;;;67.20;26.50;;;;;;;3.80;92.23;100651.63;5096852;28;20537;-59
2020/12/14 01:20:39;;;;;;;68.20;25.70;;;;;;;3.70;92.44;100639.88;5095150;28;20856;-59
2020/12/14 01:23:05;;;;;;;69.27;25.83;;;;;;;3.69;93.20;100633.00;5096645;28;20481;-60
2020/12/14 01:25:32;;;;;;;61.70;24.23;;;;;;;3.85;92.52;100624.72;5094765;28;20560;-60
2020/12/14 01:28:00;;;;;;;65.10;25.67;;;;;;;3.74;92.44;100612.94;5096418;28;20454;-60
2020/12/14 01:30:27;;;;;;;74.57;26.90;;;;;;;3.72;92.64;100602.63;5094918;28;20561;-60
2020/12/14 01:32:53;;;;;;;68.87;25.73;;;;;;;3.82;92.30;100601.56;5096611;28;20450;-60
2020/12/14 01:35:21;;;;;;;62.10;25.80;;;;;;;3.76;92.23;100598.59;5094132;28;20486;-60
2020/12/14 01:37:47;;;;;;;78.93;26.60;;;;;;;3.73;92.40;100594.16;5094666;28;20560;-60
2020/12/14 01:40:14;;;;;;;62.80;25.20;;;;;;;3.91;92.93;100589.38;5093163;28;20482;-60
2020/12/14 01:42:41;;;;;;;61.70;24.97;;;;;;;3.88;92.75;100599.41;5094616;28;20485;-60
2020/12/14 01:45:08;;;;;;;60.00;23.83;;;;;;;3.90;92.19;100592.72;5095488;28;20461;-59
2020/12/14 01:47:42;;;;;;;67.83;26.03;;;;;;;3.79;92.26;100593.69;5095225;28;20458;-60
2020/12/14 01:50:11;;;;;;;60.00;24.87;;;;;;;3.85;92.31;100586.44;5093348;28;20939;-60
2020/12/14 01:52:40;;;;;;;60.57;23.47;;;;;;;4.01;92.07;100584.91;5094984;28;20450;-60
2020/12/14 01:55:08;;;;;;;67.30;25.70;;;;;;;4.08;91.93;100587.06;5091169;28;20941;-61
2020/12/14 01:57:37;;;;;;;54.63;23.30;;;;;;;4.12;90.81;100572.84;5095056;28;20515;-60
2020/12/14 02:00:05;;;;;;;60.93;24.77;;;;;;;3.99;91.38;100581.38;5093395;28;20453;-60
2020/12/14 02:02:33;;;;;;;57.70;23.50;;;;;;;3.98;91.52;100565.16;5094930;28;20488;-60
2020/12/14 02:05:00;;;;;;;52.83;22.30;;;;;;;3.89;91.73;100562.88;5093120;28;20774;-60
2020/12/14 02:07:27;;;;;;;60.03;24.37;;;;;;;4.00;91.65;100567.81;5095300;28;20458;-60
2020/12/14 02:09:54;;;;;;;56.50;23.27;;;;;;;4.00;91.35;100567.81;5093763;28;20560;-60
2020/12/14 02:12:22;;;;;;;51.50;22.13;;;;;;;4.08;91.16;100570.84;5095090;28;20524;-59
2020/12/14 02:14:51;;;;;;;50.23;21.60;;;;;;;4.15;90.72;100583.25;5089516;28;20560;-60
2020/12/14 02:17:19;;;;;;;66.27;22.67;;;;;;;4.21;90.17;100581.09;5105899;28;20465;-60
2020/12/14 02:19:48;;;;;;;55.13;22.30;;;;;;;4.25;89.94;100583.06;5093642;28;20807;-60
2020/12/14 02:22:17;;;;;;;50.17;21.77;;;;;;;4.08;90.27;100576.84;5095410;28;20844;-60
2020/12/14 02:24:52;;;;;;;46.67;20.43;;;;;;;4.02;90.04;100587.56;5093552;28;20566;-60
2020/12/14 02:27:19;;;;;;;55.47;21.50;;;;;;;4.09;90.47;100573.50;5095935;28;20510;-60
2020/12/14 02:29:47;;;;;;;55.90;23.40;;;;;;;4.19;90.28;100583.56;5089811;28;20576;-60
2020/12/14 02:32:15;;;;;;;41.67;20.50;;;;;;;4.08;90.65;100587.06;5106133;28;20450;-60
2020/12/14 02:34:42;;;;;;;44.10;20.70;;;;;;;3.87;91.26;100592.53;5098661;27;21228;-60
2020/12/14 02:37:10;;;;;;;49.53;21.83;;;;;;;4.02;90.84;100589.22;5115734;28;20540;-59
2020/12/14 02:39:37;;;;;;;48.10;21.57;;;;;;;4.14;90.99;100582.38;5114586;27;20491;-60
2020/12/14 02:42:07;;;;;;;48.03;22.20;;;;;;;4.16;90.93;100575.69;5116078;28;20568;-59
2020/12/14 02:44:34;;;;;;;61.37;25.80;;;;;;;4.15;90.79;100563.69;5113550;27;20557;-60
2020/12/14 02:47:00;;;;;;;64.03;25.17;;;;;;;4.22;91.53;100562.44;5115976;28;20813;-59
2020/12/14 02:49:27;;;;;;;46.70;21.70;;;;;;;4.09;90.67;100553.09;5117419;27;20460;-60
2020/12/14 02:51:54;;;;;;;48.33;23.10;;;;;;;3.92;90.74;100554.56;5120040;28;20453;-59
2020/12/14 02:54:21;;;;;;;56.60;23.60;;;;;;;3.98;91.61;100548.94;5115202;27;20501;-60
2020/12/14 02:56:47;;;;;;;58.00;22.80;;;;;;;3.97;90.67;100539.53;5119641;28;20579;-60
2020/12/14 02:59:36;;;;;;;51.70;23.27;;;;;;;3.77;91.33;100534.91;5055167;28;20478;-60
2020/12/14 03:02:03;;;;;;;59.80;21.87;;;;;;;3.80;91.33;100547.00;5057130;28;20474;-60
2020/12/14 03:04:30;;;;;;;50.40;22.20;;;;;;;3.95;91.85;100538.56;5055238;28;20502;-60
2020/12/14 03:06:57;;;;;;;48.83;22.37;;;;;;;3.83;90.89;100536.97;5057154;28;20723;-60
2020/12/14 03:09:24;;;;;;;47.00;21.90;;;;;;;3.87;90.88;100536.38;5055824;28;20430;-60
2020/12/14 03:11:50;;;;;;;51.63;23.20;;;;;;;3.81;90.89;100530.88;5057037;28;20754;-60
2020/12/14 03:14:17;;;;;;;56.47;21.70;;;;;;;3.69;91.12;100536.03;5055316;28;20475;-60
2020/12/14 03:16:47;;;;;;;51.57;21.63;;;;;;;3.56;91.30;100534.38;5066937;28;20509;-60
2020/12/14 03:19:14;;;;;;;55.57;20.73;;;;;;;3.56;91.23;100531.81;5097644;28;20886;-60
2020/12/14 03:21:40;;;;;;;46.40;20.87;;;;;;;3.55;91.50;100532.59;5099078;28;20496;-60
2020/12/14 03:24:07;;;;;;;53.57;20.57;;;;;;;3.62;91.13;100531.31;5098483;28;20930;-60
2020/12/14 03:26:34;;;;;;;56.23;22.67;;;;;;;3.61;92.02;100532.09;5098582;28;20450;-60
2020/12/14 03:29:01;;;;;;;52.83;22.67;;;;;;;3.64;91.29;100529.78;5098556;28;20462;-60
2020/12/14 03:31:28;;;;;;;50.93;22.27;;;;;;;3.56;91.37;100519.06;5097450;28;20565;-60
2020/12/14 03:33:56;;;;;;;48.40;21.07;;;;;;;3.47;91.34;100524.44;5098519;28;20450;-60
2020/12/14 03:36:22;;;;;;;47.40;21.43;;;;;;;3.62;91.29;100524.56;5097325;28;20481;-60
2020/12/14 03:38:50;;;;;;;47.00;20.80;;;;;;;3.54;91.42;100515.50;5098676;28;20528;-60
2020/12/14 03:41:17;;;;;;;49.40;21.07;;;;;;;3.64;91.54;100525.53;5096940;28;20452;-60
2020/12/14 03:43:44;;;;;;;62.40;26.37;;;;;;;3.77;92.02;100514.50;5101031;28;20483;-60
2020/12/14 03:46:14;;;;;;;48.90;21.40;;;;;;;3.75;90.57;100507.50;5096563;28;20484;-60
2020/12/14 03:48:41;;;;;;;51.53;19.73;;;;;;;3.65;91.24;100498.38;5098786;28;20536;-61
2020/12/14 03:51:10;;;;;;;49.97;19.57;;;;;;;3.65;90.72;100499.25;5091222;28;20554;-60
2020/12/14 03:53:37;;;;;;;46.73;19.87;;;;;;;3.73;91.04;100491.19;5098664;28;20524;-60
2020/12/14 03:56:04;;;;;;;45.03;20.90;;;;;;;3.86;91.77;100496.34;5096394;28;21033;-60
2020/12/14 03:58:30;;;;;;;45.87;21.20;;;;;;;3.76;91.85;100496.50;5098292;28;20880;-60
2020/12/14 04:00:57;;;;;;;37.17;18.93;;;;;;;3.61;90.55;100491.28;5096619;28;20922;-60
2020/12/14 04:03:25;;;;;;;36.00;18.57;;;;;;;3.61;90.39;100487.09;5098389;28;20565;-60
2020/12/14 04:05:52;;;;;;;57.57;23.73;;;;;;;3.64;90.66;100491.50;5096303;28;20767;-60
2020/12/14 04:08:20;;;;;;;46.17;20.00;;;;;;;3.68;90.24;100490.03;5098481;28;20763;-60
2020/12/14 04:10:47;;;;;;;36.13;18.00;;;;;;;3.73;89.83;100496.28;5096810;28;20470;-60
2020/12/14 04:13:13;;;;;;;41.47;18.97;;;;;;;3.71;89.53;100495.31;5098211;28;20533;-60
2020/12/14 04:15:40;;;;;;;52.43;22.00;;;;;;;3.81;91.46;100494.25;5095565;28;20487;-60
2020/12/14 04:18:07;;;;;;;36.97;17.83;;;;;;;3.54;90.37;100500.19;5098110;28;20553;-60
2020/12/14 04:20:33;;;;;;;38.63;18.20;;;;;;;3.63;90.28;100513.56;5096399;28;20482;-60
2020/12/14 04:23:00;;;;;;;31.57;16.03;;;;;;;3.61;89.87;100517.69;5097797;28;20517;-60
2020/12/14 04:25:27;;;;;;;32.87;15.70;;;;;;;3.70;89.73;100509.72;5096741;28;20478;-60
2020/12/14 04:27:58;;;;;;;38.27;17.50;;;;;;;3.80;89.80;100507.81;5100594;28;20482;-60
2020/12/14 04:30:25;;;;;;;38.10;15.90;;;;;;;3.65;89.21;100506.88;5097090;28;20477;-60
2020/12/14 04:32:51;;;;;;;32.93;16.20;;;;;;;3.82;89.24;100512.22;5097728;28;20449;-60
2020/12/14 04:35:19;;;;;;;32.37;15.80;;;;;;;3.81;88.72;100520.66;5095586;28;20500;-60
2020/12/14 04:37:46;;;;;;;28.23;14.90;;;;;;;3.96;89.13;100530.09;5097524;28;20437;-60
2020/12/14 04:40:12;;;;;;;37.90;18.60;;;;;;;3.96;88.93;100525.00;5096230;28;20484;-60
2020/12/14 04:42:40;;;;;;;37.90;14.40;;;;;;;3.73;88.51;100515.06;5097451;28;20489;-60
2020/12/14 04:45:07;;;;;;;32.63;15.57;;;;;;;3.83;88.57;100518.19;5095664;28;20498;-60
2020/12/14 04:47:34;;;;;;;31.40;15.00;;;;;;;3.81;88.96;100514.66;5097486;28;20807;-60
2020/12/14 04:50:01;;;;;;;30.07;15.63;;;;;;;3.91;88.63;100512.81;5095936;28;20463;-59
2020/12/14 04:52:28;;;;;;;33.27;16.47;;;;;;;3.94;88.39;100518.91;5098128;28;20541;-60
2020/12/14 04:54:56;;;;;;;31.00;15.63;;;;;;;3.85;88.25;100511.53;5095635;28;20512;-60
2020/12/14 04:57:23;;;;;;;33.10;15.37;;;;;;;3.99;88.69;100508.19;5099848;28;20482;-60
2020/12/14 04:59:51;;;;;;;24.63;13.43;;;;;;;4.21;88.72;100506.16;5095586;28;20482;-60
2020/12/14 05:02:18;;;;;;;31.87;16.23;;;;;;;3.96;87.95;100499.47;5096887;28;20466;-60
2020/12/14 05:04:44;;;;;;;33.23;14.63;;;;;;;3.91;87.60;100500.03;5095356;28;20817;-60
2020/12/14 05:07:12;;;;;;;29.40;14.77;;;;;;;3.89;87.46;100493.97;5097317;28;20454;-60
2020/12/14 05:09:41;;;;;;;27.83;13.90;;;;;;;3.87;87.72;100489.53;5095596;28;20466;-60
2020/12/14 05:12:17;;;;;;;28.10;13.73;;;;;;;3.92;88.08;100478.88;5096630;28;20447;-60
2020/12/14 05:14:44;;;;;;;28.13;13.23;;;;;;;3.80;87.69;100475.53;5095181;28;20745;-60
2020/12/14 05:17:22;;;;;;;30.50;14.43;;;;;;;3.84;88.47;100469.81;5097137;28;20493;-60
2020/12/14 05:19:49;;;;;;;23.47;11.17;;;;;;;3.81;87.43;100478.94;5095340;28;20557;-60
2020/12/14 05:22:17;;;;;;;26.10;12.80;;;;;;;3.82;87.96;100476.50;5096852;28;20792;-60
2020/12/14 05:24:50;;;;;;;33.30;16.43;;;;;;;3.97;88.12;100481.69;5095010;28;20560;-60
2020/12/14 05:27:30;;;;;;;24.57;12.30;;;;;;;3.80;87.60;100472.06;5096582;28;20895;-60
2020/12/14 05:29:57;;;;;;;25.50;12.93;;;;;;;3.78;87.75;100472.88;5095017;28;20474;-60
2020/12/14 05:32:25;;;;;;;27.30;12.80;;;;;;;3.76;87.16;100476.09;5096649;28;20934;-60
2020/12/14 05:34:51;;;;;;;23.03;11.27;;;;;;;3.76;87.13;100468.44;5094770;28;20482;-60
2020/12/14 05:37:18;;;;;;;25.30;12.67;;;;;;;3.74;87.10;100472.56;5096678;28;20449;-60
2020/12/14 05:39:45;;;;;;;24.50;12.20;;;;;;;3.74;87.16;100468.34;5095038;28;20477;-60
2020/12/14 05:42:14;;;;;;;22.60;11.30;;;;;;;3.80;87.19;100470.41;5096449;28;20619;-60
2020/12/14 05:44:42;;;;;;;24.40;11.97;;;;;;;3.76;88.08;100460.78;5094525;28;20554;-60
2020/12/14 05:47:29;;;;;;;28.60;14.07;;;;;;;3.68;87.25;100461.97;5096511;28;20465;-60
2020/12/14 05:49:58;;;;;;;22.80;12.13;;;;;;;3.67;86.97;100465.28;5094753;28;20930;-60
2020/12/14 05:52:30;;;;;;;23.70;11.40;;;;;;;3.75;86.80;100469.22;5097809;28;20885;-60
2020/12/14 05:54:58;;;;;;;23.13;11.30;;;;;;;3.75;86.72;100462.44;5094453;28;20465;-60
2020/12/14 05:57:31;;;;;;;24.63;12.40;;;;;;;3.77;86.86;100462.53;5096585;28;20758;-60
2020/12/14 06:00:00;;;;;;;18.60;10.23;;;;;;;3.79;87.30;100455.84;5094426;28;20608;-60
2020/12/14 06:02:27;;;;;;;18.03;9.23;;;;;;;3.75;86.15;100464.13;5095990;28;20501;-60
2020/12/14 06:04:57;;;;;;;19.83;10.60;;;;;;;3.76;87.14;100459.09;5090604;28;20478;-60
2020/12/14 06:07:25;;;;;;;22.30;11.10;;;;;;;3.82;87.43;100470.50;5096435;28;20446;-60
2020/12/14 06:10:03;;;;;;;20.03;10.90;;;;;;;3.61;86.51;100474.31;5095083;28;20868;-60
2020/12/14 06:12:31;;;;;;;22.83;11.43;;;;;;;3.76;86.98;100473.53;5096352;28;20617;-59
2020/12/14 06:15:04;;;;;;;20.30;10.90;;;;;;;3.79;86.18;100471.19;5094146;28;20478;-60
2020/12/14 06:17:32;;;;;;;19.60;9.17;;;;;;;3.76;86.65;100466.75;5096498;28;20497;-60
2020/12/14 06:20:04;;;;;;;19.27;10.57;;;;;;;3.86;87.22;100463.16;5094597;28;20535;-60
2020/12/14 06:22:31;;;;;;;17.20;10.20;;;;;;;3.80;86.58;100469.53;5095808;28;20501;-60
2020/12/14 06:24:59;;;;;;;23.87;10.47;;;;;;;3.83;87.21;100456.94;5097906;28;20484;-60
2020/12/14 06:27:26;;;;;;;23.70;10.60;;;;;;;4.01;87.64;100450.47;5100160;28;20742;-60
2020/12/14 06:29:53;;;;;;;19.40;10.50;;;;;;;3.97;86.42;100445.06;5101031;28;20558;-60
2020/12/14 06:32:39;;;;;;;22.40;11.43;;;;;;;4.04;86.83;100442.09;5100140;28;20454;-60
2020/12/14 06:35:14;;;;;;;18.80;10.53;;;;;;;4.03;85.83;100438.69;5097879;28;20944;-60
2020/12/14 06:37:51;;;;;;;18.43;9.70;;;;;;;3.92;85.79;100438.03;5100137;28;20548;-61
2020/12/14 06:40:18;;;;;;;17.37;8.57;;;;;;;3.90;85.88;100431.03;5098124;28;20552;-60
2020/12/14 06:42:46;;;;;;;21.10;9.77;;;;;;;3.82;86.10;100430.56;5099725;28;20465;-60
2020/12/14 06:45:14;;;;;;;17.70;10.10;;;;;;;3.80;86.51;100432.13;5097710;28;20754;-60
2020/12/14 06:47:42;;;;;;;18.20;10.43;;;;;;;3.90;86.59;100429.34;5099756;28;20553;-60
2020/12/14 06:50:32;;;;;;;17.00;9.80;;;;;;;3.78;86.07;100428.56;5098160;28;20480;-60
2020/12/14 06:53:00;;;;;;;19.77;8.57;;;;;;;3.69;85.86;100428.88;5099818;28;20460;-60
2020/12/14 06:55:45;;;;;;;17.87;8.90;;;;;;;3.75;85.78;100424.16;5109416;27;20461;-60
2020/12/14 06:58:36;;;;;;;18.40;8.87;;;;;;;3.74;85.99;100431.75;5119448;28;20710;-60
2020/12/14 07:01:04;;;;;;;19.50;10.20;;;;;;;3.80;85.35;100436.34;5118053;27;20472;-60
2020/12/14 07:03:34;;;;;;;15.90;8.83;;;;;;;3.87;85.82;100439.38;5119927;27;20552;-60
2020/12/14 07:06:02;;;;;;;18.30;9.40;;;;;;;3.86;85.69;100429.97;5117955;27;20777;-60
2020/12/14 07:08:31;;;;;;;18.87;9.73;;;;;;;3.87;85.35;100433.38;5119670;28;20548;-60
2020/12/14 07:11:11;;;;;;;18.83;9.27;;;;;;;4.02;87.33;100424.16;5118072;27;20454;-60
2020/12/14 07:13:38;;;;;;;20.23;10.67;;;;;;;4.02;85.57;100428.38;5118566;28;20449;-60
2020/12/14 07:16:06;;;;;;;17.83;8.40;;;;;;;3.78;84.98;100423.47;5115005;27;20477;-60
2020/12/14 07:18:33;;;;;;;15.93;8.47;;;;;;;3.88;85.68;100419.84;5119562;28;20460;-60
2020/12/14 07:21:07;;;;;;;22.60;10.13;;;;;;;3.94;84.89;100421.91;5117710;27;21037;-60
2020/12/14 07:23:35;;;;;;;17.63;8.67;;;;;;;3.84;85.52;100428.97;5116259;28;20563;-60
2020/12/14 07:26:02;;;;;;;17.83;9.37;;;;;;;3.80;84.75;100439.78;5103615;28;20465;-60
2020/12/14 07:28:41;;;;;;;17.70;8.33;;;;;;;3.86;84.82;100436.72;5107026;28;20534;-60
2020/12/14 07:31:13;;;;;;;17.43;9.47;;;;;;;3.94;86.15;100433.00;5117465;27;20473;-60
2020/12/14 07:33:40;;;;;;;18.33;9.37;;;;;;;3.88;85.50;100432.59;5102869;27;20461;-60
2020/12/14 07:36:09;;;;;;;24.93;10.50;;;;;;;3.97;85.02;100434.84;5096590;28;20452;-60
2020/12/14 07:38:52;;;;;;;31.03;12.67;;;;;;;3.87;84.71;100434.28;5098528;28;20458;-60
2020/12/14 07:41:19;;;;;;;27.57;13.10;;;;;;;4.04;85.49;100437.00;5103704;28;20542;-59
2020/12/14 07:43:48;;;;;;;20.93;9.97;;;;;;;3.95;85.24;100442.41;5118698;28;20484;-60
2020/12/14 07:46:22;;;;;;;18.17;8.47;;;;;;;4.04;84.16;100444.66;5116919;27;20480;-60
2020/12/14 07:48:54;;;;;;;17.60;9.30;;;;;;;4.02;83.94;100448.81;5118790;28;20514;-60
2020/12/14 07:51:21;;;;;;;14.57;7.77;;;;;;;3.98;84.00;100454.47;5117152;27;20559;-59
2020/12/14 07:53:51;;;;;;;16.97;8.67;;;;;;;3.91;84.24;100458.34;5118992;28;20448;-60
2020/12/14 07:56:18;;;;;;;17.50;8.70;;;;;;;4.12;84.54;100451.16;5116928;27;20472;-60
2020/12/14 07:58:45;;;;;;;17.33;9.67;;;;;;;4.11;84.87;100449.38;5108984;28;20545;-60
2020/12/14 08:01:13;;;;;;;35.07;13.73;;;;;;;4.12;84.06;100443.50;5094728;28;20600;-60
2020/12/14 08:03:40;;;;;;;25.20;12.20;;;;;;;4.04;84.15;100429.34;5098272;28;20815;-60
2020/12/14 08:06:14;;;;;;;16.00;8.73;;;;;;;4.05;84.18;100442.22;5095369;28;20477;-60
2020/12/14 08:08:44;;;;;;;20.57;9.40;;;;;;;4.25;83.74;100436.59;5098298;28;20457;-60
2020/12/14 08:11:11;;;;;;;30.97;13.37;;;;;;;4.13;84.28;100437.59;5096070;28;20488;-60
2020/12/14 08:13:39;;;;;;;19.30;10.07;;;;;;;4.00;84.15;100432.50;5097871;28;20483;-59
2020/12/14 08:16:06;;;;;;;19.33;9.13;;;;;;;4.06;83.94;100435.44;5095777;28;20836;-60
2020/12/14 08:18:34;;;;;;;16.10;8.13;;;;;;;4.11;84.19;100428.94;5097947;28;20867;-60
2020/12/14 08:21:01;;;;;;;13.67;7.73;;;;;;;4.09;83.52;100435.63;5095660;28;20528;-58
2020/12/14 08:23:36;;;;;;;14.70;7.73;;;;;;;3.98;84.12;100431.50;5100313;28;20485;-59
2020/12/14 08:26:11;;;;;;;14.93;7.63;;;;;;;4.12;83.96;100423.06;5095765;28;20504;-56
2020/12/14 08:28:38;;;;;;;15.00;8.03;;;;;;;4.13;83.51;100419.72;5097612;28;20500;-59
2020/12/14 08:31:05;;;;;;;16.47;7.93;;;;;;;4.24;83.70;100404.16;5095749;28;20942;-56
2020/12/14 08:33:33;;;;;;;15.80;7.90;;;;;;;4.21;83.20;100419.31;5114244;28;20428;-58
2020/12/14 08:36:08;;;;;;;13.93;7.77;;;;;;;4.22;83.54;100423.63;5115661;27;20469;-56
2020/12/14 08:38:35;;;;;;;14.87;8.07;;;;;;;4.11;83.66;100413.63;5118017;28;20460;-54
2020/12/14 08:41:04;;;;;;;15.20;7.40;;;;;;;4.15;83.38;100430.03;5113637;27;20915;-60
2020/12/14 08:43:34;;;;;;;15.10;7.73;;;;;;;4.14;83.37;100429.16;5117742;27;20519;-60
2020/12/14 08:46:02;;;;;;;15.40;7.33;;;;;;;4.20;83.75;100418.41;5114822;27;20564;-60
2020/12/14 08:48:30;;;;;;;22.60;10.30;;;;;;;4.26;83.57;100407.72;5117727;28;20511;-60
2020/12/14 08:51:05;;;;;;;15.40;7.57;;;;;;;4.27;83.25;100404.38;5114954;27;20496;-60
2020/12/14 08:53:31;;;;;;;12.10;6.23;;;;;;;4.16;83.17;100414.78;5116307;28;20513;-60
2020/12/14 08:56:03;;;;;;;15.83;7.27;;;;;;;4.24;83.33;100393.94;5115749;27;20480;-60
2020/12/14 08:58:31;;;;;;;17.90;9.30;;;;;;;4.39;83.55;100404.22;5117612;28;20532;-60
2020/12/14 09:01:08;;;;;;;15.50;7.77;;;;;;;4.42;82.64;100389.97;5115929;27;20444;-60
2020/12/14 09:03:53;;;;;;;15.03;7.83;;;;;;;4.48;83.30;100386.03;5117514;28;20790;-60
2020/12/14 09:06:22;;;;;;;16.00;7.13;;;;;;;4.32;82.81;100385.97;5115850;27;20477;-60
2020/12/14 09:08:59;;;;;;;12.07;6.77;;;;;;;4.50;82.62;100380.22;5117578;28;20453;-60
2020/12/14 09:11:28;;;;;;;13.37;6.43;;;;;;;4.37;82.17;100391.38;5115640;27;20552;-60
2020/12/14 09:13:59;;;;;;;13.07;7.30;;;;;;;4.44;82.81;100384.94;5104806;28;20450;-60
2020/12/14 09:16:26;;;;;;;9.80;6.00;;;;;;;4.64;82.84;100387.81;5095157;28;20809;-60
2020/12/14 09:18:54;;;;;;;12.00;6.70;;;;;;;4.53;82.30;100392.28;5096964;28;20511;-60
2020/12/14 09:21:21;;;;;;;22.60;9.20;;;;;;;4.59;82.23;100401.22;5095037;28;20937;-60
2020/12/14 09:24:24;;;;;;;11.33;6.03;;;;;;;4.50;81.90;100387.00;5096460;28;21297;-60
2020/12/14 09:26:53;;;;;;;12.43;6.37;;;;;;;4.49;82.67;100396.34;5096128;28;20464;-60
2020/12/14 09:29:21;;;;;;;10.80;6.50;;;;;;;4.59;82.23;100402.88;5095338;28;20433;-60
2020/12/14 09:31:52;;;;;;;11.90;5.90;;;;;;;4.40;82.37;100395.75;5096402;28;20571;-60
2020/12/14 09:34:19;;;;;;;12.83;6.33;;;;;;;4.57;82.52;100394.25;5094375;28;20949;-60
2020/12/14 09:36:46;;;;;;;12.80;6.00;;;;;;;4.53;81.98;100405.06;5096376;28;20480;-60
2020/12/14 09:39:15;;;;;;;13.47;5.40;;;;;;;4.50;81.97;100407.47;5094762;28;20489;-53
2020/12/14 09:41:42;;;;;;;10.63;5.30;;;;;;;4.44;82.52;100407.94;5096268;28;20573;-58
2020/12/14 09:44:09;;;;;;;11.80;6.23;;;;;;;4.42;82.16;100410.41;5093692;28;20536;-53
2020/12/14 09:46:36;;;;;;;11.20;6.00;;;;;;;4.50;82.27;100399.78;5095796;28;20565;-54
2020/12/14 09:49:03;;;;;;;10.40;5.67;;;;;;;4.54;82.09;100394.06;5096433;28;20507;-60
2020/12/14 09:51:30;;;;;;;11.00;5.47;;;;;;;4.55;82.18;100400.94;5094872;28;20497;-59
2020/12/14 09:53:57;;;;;;;12.80;7.37;;;;;;;4.54;82.29;100394.94;5095212;28;20465;-55
2020/12/14 09:56:23;;;;;;;12.03;6.23;;;;;;;4.52;82.08;100401.63;5104367;28;20481;-57
2020/12/14 09:58:50;;;;;;;11.93;6.70;;;;;;;4.63;82.20;100393.72;5116402;28;20438;-54
2020/12/14 10:01:17;;;;;;;17.90;6.40;;;;;;;4.68;82.26;100385.53;5113762;27;20480;-59
2020/12/14 10:03:44;;;;;;;11.13;6.00;;;;;;;4.59;82.66;100397.78;5113963;28;20481;-57
2020/12/14 10:06:12;;;;;;;10.00;6.03;;;;;;;4.49;84.09;100400.56;5114349;27;20477;-55
2020/12/14 10:08:39;;;;;;;10.17;5.90;;;;;;;4.57;84.61;100395.13;5116337;28;20460;-57
2020/12/14 10:11:07;;;;;;;13.10;5.70;;;;;;;4.38;85.60;100380.38;5115046;27;20957;-58
2020/12/14 10:13:34;;;;;;;9.87;6.07;;;;;;;4.33;86.71;100395.38;5112869;28;20454;-56
2020/12/14 10:16:01;;;;;;;11.33;6.77;;;;;;;4.34;87.68;100396.28;5102512;27;20535;-56
2020/12/14 10:18:27;;;;;;;12.53;6.27;;;;;;;4.32;88.10;100388.53;5104689;28;20761;-57
2020/12/14 10:20:55;;;;;;;11.40;7.00;;;;;;;4.27;89.13;100395.03;5102885;27;20553;-57
2020/12/14 10:23:22;;;;;;;11.40;7.10;;;;;;;4.32;89.52;100388.53;5105146;28;20470;-55
2020/12/14 10:25:48;;;;;;;18.27;7.50;;;;;;;4.21;90.14;100387.00;5104769;28;20477;-57
2020/12/14 10:28:15;;;;;;;12.70;6.90;;;;;;;4.11;90.92;100388.09;5113316;28;20584;-58
2020/12/14 10:30:42;;;;;;;15.03;7.67;;;;;;;4.18;91.31;100392.81;5104823;28;20784;-55
2020/12/14 10:33:16;;;;;;;12.37;7.00;;;;;;;4.18;91.69;100382.59;5114596;28;21128;-54
2020/12/14 10:35:43;;;;;;;17.70;7.30;;;;;;;4.18;91.60;100380.03;5112848;27;20531;-58
2020/12/14 10:38:11;;;;;;;11.07;6.70;;;;;;;4.19;91.84;100386.00;5115480;28;20457;-57
2020/12/14 10:40:38;;;;;;;11.90;6.77;;;;;;;4.10;92.31;100386.31;5113299;27;20477;-55
2020/12/14 10:43:04;;;;;;;17.30;6.00;;;;;;;3.99;93.07;100382.25;5115304;28;20464;-58
2020/12/14 10:45:31;;;;;;;13.87;7.87;;;;;;;4.02;93.35;100382.41;5113292;27;20477;-57
2020/12/14 10:47:58;;;;;;;15.97;7.23;;;;;;;4.11;93.56;100382.09;5114960;28;20453;-56
2020/12/14 10:50:26;;;;;;;11.13;6.30;;;;;;;4.07;93.27;100370.81;5110462;27;20869;-56
2020/12/14 10:52:53;;;;;;;19.83;7.43;;;;;;;4.08;93.61;100364.94;5115351;28;20453;-58
2020/12/14 10:55:21;;;;;;;12.50;6.63;;;;;;;4.17;93.51;100370.59;5113623;27;20473;-56
2020/12/14 10:57:48;;;;;;;12.00;6.97;;;;;;;4.15;93.71;100374.72;5115387;28;20552;-58
2020/12/14 11:00:17;;;;;;;16.57;6.47;;;;;;;4.12;94.14;100366.88;5113885;27;20480;-55
2020/12/14 11:02:43;;;;;;;13.57;7.27;;;;;;;4.17;94.07;100369.72;5115080;28;20522;-56
2020/12/14 11:05:11;;;;;;;11.87;6.53;;;;;;;4.16;94.07;100366.28;5113465;27;20477;-57
2020/12/14 11:07:38;;;;;;;12.50;6.80;;;;;;;4.18;93.91;100371.47;5115428;28;20453;-54
2020/12/14 11:10:05;;;;;;;16.70;7.60;;;;;;;4.25;93.90;100372.75;5115844;27;20503;-55
2020/12/14 11:12:33;;;;;;;12.90;5.80;;;;;;;4.09;94.27;100369.25;5118947;28;20471;-57
2020/12/14 11:15:00;;;;;;;14.47;8.00;;;;;;;4.18;94.43;100368.94;5117263;27;20472;-57
2020/12/14 11:17:27;;;;;;;15.63;8.13;;;;;;;4.18;94.55;100354.50;5119377;28;20456;-56
2020/12/14 11:19:54;;;;;;;18.40;8.27;;;;;;;4.26;94.62;100365.16;5110807;27;20501;-57
2020/12/14 11:22:20;;;;;;;18.97;7.93;;;;;;;4.37;94.33;100355.63;5110530;28;20472;-58
2020/12/14 11:24:47;;;;;;;10.03;6.20;;;;;;;4.22;94.42;100358.13;5109147;27;20539;-59
2020/12/14 11:27:18;;;;;;;12.77;6.53;;;;;;;4.18;94.79;100351.94;5107130;28;20780;-59